Time;durP1;ratioP1;P1;durP2;ratioP2;P2;SDS_P1;SDS_P2;PMS_P1;PMS_P2;Temp;Humidity;BMP_temperature;BMP_pressure;BME280_temperature;BME280_humidity;BME280_pressure;Samples;Min_cycle;Max_cycle;Signal;HPM_P1;HPM_P2
2023/12/06 00:01:51;;;;;;;15.15;7.03;;;;;;;2.59;73.49;99776.78;6363272;27;20144;-74
2023/12/06 00:04:55;;;;;;;12.23;6.82;;;;;;;2.44;73.36;99776.41;6357747;27;20054;-76
2023/12/06 00:07:56;;;;;;;14.25;8.48;;;;;;;2.47;73.53;99769.44;6365318;27;20079;-76
2023/12/06 00:10:59;;;;;;;12.77;7.13;;;;;;;2.48;74.17;99760.81;6358450;27;20509;-73
2023/12/06 00:14:00;;;;;;;15.75;8.48;;;;;;;2.25;73.84;99758.13;6371826;27;20058;-73
2023/12/06 00:17:01;;;;;;;15.85;8.52;;;;;;;2.56;73.85;99776.84;6365283;27;20051;-73
2023/12/06 00:20:02;;;;;;;18.08;7.60;;;;;;;2.62;73.03;99773.25;6348268;27;20131;-74
2023/12/06 00:23:03;;;;;;;14.68;7.10;;;;;;;2.49;72.93;99779.66;6370725;27;20075;-76
2023/12/06 00:26:07;;;;;;;13.23;7.20;;;;;;;2.43;73.07;99775.59;6364393;27;20066;-76
2023/12/06 00:29:10;;;;;;;15.30;6.72;;;;;;;2.51;73.14;99765.00;6360782;27;20040;-76
2023/12/06 00:32:11;;;;;;;11.77;6.45;;;;;;;2.38;73.25;99785.16;6350520;27;20074;-75
2023/12/06 00:35:11;;;;;;;13.43;7.13;;;;;;;2.51;72.80;99786.47;6373378;27;20479;-76
2023/12/06 00:38:13;;;;;;;18.00;8.25;;;;;;;2.37;72.66;99781.75;6372261;27;20073;-76
2023/12/06 00:41:14;;;;;;;12.27;6.07;;;;;;;2.45;72.85;99788.38;6373313;27;20130;-76
2023/12/06 00:44:15;;;;;;;11.48;6.38;;;;;;;2.39;72.31;99790.28;6350953;27;20292;-76
2023/12/06 00:47:16;;;;;;;12.35;6.63;;;;;;;2.47;72.40;99795.19;6347343;28;20048;-76
2023/12/06 00:50:17;;;;;;;14.00;7.95;;;;;;;2.62;72.05;99796.44;6349433;27;20050;-76
2023/12/06 00:53:18;;;;;;;9.63;6.15;;;;;;;2.51;72.11;99790.75;6372680;27;20051;-76
2023/12/06 00:56:21;;;;;;;18.33;7.50;;;;;;;2.31;72.35;99778.53;6349145;27;20415;-76
2023/12/06 00:59:22;;;;;;;15.90;7.72;;;;;;;2.40;72.04;99784.22;6364250;27;20412;-75
2023/12/06 01:02:25;;;;;;;12.00;6.45;;;;;;;2.47;71.92;99787.47;6352389;27;20063;-76
2023/12/06 01:05:26;;;;;;;11.07;6.60;;;;;;;2.40;71.95;99781.66;6370002;27;20043;-75
2023/12/06 01:08:27;;;;;;;16.45;6.47;;;;;;;2.63;71.34;99777.50;6357246;27;20071;-73
2023/12/06 01:11:28;;;;;;;13.35;6.85;;;;;;;2.54;71.38;99782.97;6355733;27;20059;-76
2023/12/06 01:14:29;;;;;;;17.63;6.75;;;;;;;2.62;71.65;99775.81;6364601;27;20047;-76
2023/12/06 01:17:32;;;;;;;14.27;7.07;;;;;;;2.41;71.43;99773.03;6346414;28;20130;-76
2023/12/06 01:20:33;;;;;;;12.95;7.13;;;;;;;2.49;71.73;99777.09;6370383;27;20050;-76
2023/12/06 01:23:34;;;;;;;18.00;7.28;;;;;;;2.54;71.63;99770.91;6364526;27;20506;-76
2023/12/06 01:26:34;;;;;;;12.27;6.78;;;;;;;2.68;71.05;99782.47;6353745;27;20043;-76
2023/12/06 01:29:35;;;;;;;14.40;7.28;;;;;;;2.67;71.46;99788.53;6368762;27;20395;-76
2023/12/06 01:32:36;;;;;;;13.80;7.05;;;;;;;2.71;70.87;99790.13;6357549;27;20050;-76
2023/12/06 01:35:37;;;;;;;15.90;7.80;;;;;;;2.74;70.99;99788.31;6361757;27;20070;-73
2023/12/06 01:38:41;;;;;;;16.83;6.55;;;;;;;2.83;70.40;99782.00;6367580;27;20120;-76
2023/12/06 01:41:48;;;;;;;12.77;7.07;;;;;;;2.78;70.49;99777.00;6366490;27;20754;-74
2023/12/06 01:44:53;;;;;;;14.63;7.25;;;;;;;2.74;70.60;99780.56;6358821;27;20067;-73
2023/12/06 01:47:55;;;;;;;14.73;7.07;;;;;;;2.78;70.30;99779.56;6363949;27;20084;-73
2023/12/06 01:50:57;;;;;;;13.37;6.70;;;;;;;2.79;70.96;99770.09;6346330;28;20056;-76
2023/12/06 01:54:00;;;;;;;19.10;7.85;;;;;;;2.73;70.44;99760.84;6361963;27;20539;-73
2023/12/06 01:57:01;;;;;;;13.90;7.15;;;;;;;2.80;70.54;99758.88;6350986;27;20047;-74
2023/12/06 02:00:04;;;;;;;13.98;6.95;;;;;;;2.53;71.40;99755.50;6354191;27;20494;-76
2023/12/06 02:03:05;;;;;;;13.10;7.28;;;;;;;2.47;71.90;99754.00;6368632;27;20080;-76
2023/12/06 02:06:07;;;;;;;17.40;8.23;;;;;;;2.39;72.22;99751.66;6365634;27;20043;-76
2023/12/06 02:09:11;;;;;;;14.18;7.35;;;;;;;2.67;71.93;99747.31;6354019;27;20046;-75
2023/12/06 02:12:15;;;;;;;11.85;7.43;;;;;;;2.60;72.67;99754.44;6365192;27;20043;-76
2023/12/06 02:15:16;;;;;;;17.13;7.65;;;;;;;2.62;72.24;99747.50;6361831;27;20448;-76
2023/12/06 02:18:17;;;;;;;13.57;8.27;;;;;;;2.39;72.52;99736.22;6359943;27;20049;-76
2023/12/06 02:21:18;;;;;;;12.57;7.30;;;;;;;2.45;73.24;99727.44;6346617;27;20044;-74
2023/12/06 02:24:21;;;;;;;15.40;8.15;;;;;;;2.20;73.97;99715.38;6356658;27;20054;-75
2023/12/06 02:27:24;;;;;;;;;;;;;;;2.19;74.14;99715.41;6363857;27;20047;-76
2023/12/06 02:30:25;;;;;;;12.80;7.05;;;;;;;2.30;74.39;99718.47;6362376;27;20002;-76
2023/12/06 02:33:30;;;;;;;13.10;7.28;;;;;;;2.25;74.05;99709.22;6371841;27;20091;-73
2023/12/06 02:36:33;;;;;;;15.05;7.03;;;;;;;2.12;74.57;99714.75;6361017;27;20487;-76
2023/12/06 02:39:40;;;;;;;11.95;7.20;;;;;;;2.05;74.84;99707.28;6359697;27;20040;-76
2023/12/06 02:42:44;;;;;;;17.75;8.00;;;;;;;2.01;75.05;99698.81;6367923;27;20047;-73
2023/12/06 02:45:45;;;;;;;11.18;6.53;;;;;;;1.91;75.38;99712.84;6367751;27;20040;-73
2023/12/06 02:48:49;;;;;;;16.67;7.50;;;;;;;1.74;75.56;99701.34;6366832;27;20126;-73
2023/12/06 02:51:50;;;;;;;13.10;6.88;;;;;;;1.93;75.73;99709.31;6352641;28;20057;-74
2023/12/06 02:54:51;;;;;;;12.18;7.63;;;;;;;1.99;75.70;99700.59;6365233;27;20070;-73
2023/12/06 02:57:54;;;;;;;16.13;8.00;;;;;;;1.85;75.80;99698.44;6351240;28;20083;-74
2023/12/06 03:00:57;;;;;;;14.63;7.15;;;;;;;1.89;75.86;99696.63;6352218;28;20039;-73
2023/12/06 03:03:58;;;;;;;14.93;7.88;;;;;;;1.79;76.77;99683.19;6367668;28;20043;-73
2023/12/06 03:06:59;;;;;;;13.93;7.68;;;;;;;1.69;76.89;99690.38;6349557;28;20059;-76
2023/12/06 03:10:01;;;;;;;14.80;7.60;;;;;;;1.60;77.47;99694.03;6349623;27;20644;-76
2023/12/06 03:13:03;;;;;;;19.27;9.00;;;;;;;1.63;77.27;99694.81;6359232;28;20051;-76
2023/12/06 03:16:04;;;;;;;16.65;7.80;;;;;;;1.67;77.47;99691.28;6354375;27;20051;-74
2023/12/06 03:19:05;;;;;;;14.35;8.32;;;;;;;1.56;77.82;99697.59;6347058;28;20047;-76
2023/12/06 03:22:06;;;;;;;15.48;8.20;;;;;;;1.42;78.93;99697.16;6360396;27;20411;-73
2023/12/06 03:25:07;;;;;;;17.15;8.82;;;;;;;1.40;78.70;99697.22;6358420;27;20489;-73
2023/12/06 03:28:08;;;;;;;20.50;8.25;;;;;;;1.40;78.55;99701.50;6360718;27;20051;-75
2023/12/06 03:31:09;;;;;;;15.20;8.27;;;;;;;1.39;78.72;99692.94;6356198;27;20434;-73
2023/12/06 03:34:10;;;;;;;16.10;9.05;;;;;;;1.38;78.47;99688.69;6367910;27;20042;-73
2023/12/06 03:37:11;;;;;;;12.52;7.50;;;;;;;1.38;78.73;99693.84;6371151;27;20499;-73
2023/12/06 03:40:12;;;;;;;13.70;7.57;;;;;;;1.22;79.00;99681.47;6372593;27;20380;-73
2023/12/06 03:43:13;;;;;;;17.15;8.85;;;;;;;1.24;79.08;99675.41;6375245;27;20047;-73
2023/12/06 03:46:14;;;;;;;15.02;8.50;;;;;;;1.33;78.81;99682.00;6359687;27;20047;-73
2023/12/06 03:49:14;;;;;;;15.75;9.68;;;;;;;1.18;79.72;99686.69;6354541;27;20043;-76
2023/12/06 03:52:15;;;;;;;15.90;8.52;;;;;;;0.93;80.08;99691.69;6367200;27;20130;-73
2023/12/06 03:55:16;;;;;;;18.02;9.20;;;;;;;1.05;80.78;99685.38;6363383;27;20051;-75
2023/12/06 03:58:17;;;;;;;19.30;8.93;;;;;;;1.23;80.25;99691.69;6363858;27;20051;-73
2023/12/06 04:01:18;;;;;;;15.68;8.23;;;;;;;1.19;79.74;99685.81;6363873;27;20521;-73
2023/12/06 04:04:19;;;;;;;16.45;8.18;;;;;;;1.13;80.20;99680.88;6373119;27;20047;-73
2023/12/06 04:07:19;;;;;;;17.63;8.93;;;;;;;1.12;80.23;99679.16;6370349;27;20479;-73
2023/12/06 04:10:20;;;;;;;11.90;7.22;;;;;;;0.96;80.27;99676.16;6356025;27;20134;-73
2023/12/06 04:13:21;;;;;;;13.93;8.30;;;;;;;1.00;80.80;99679.50;6374093;27;20054;-73
2023/12/06 04:16:22;;;;;;;12.95;7.22;;;;;;;1.01;81.34;99678.63;6358467;27;20046;-76
2023/12/06 04:19:23;;;;;;;13.65;7.35;;;;;;;1.07;80.49;99675.91;6373396;27;20046;-76
2023/12/06 04:22:24;;;;;;;18.88;8.77;;;;;;;0.87;81.21;99671.28;6371103;27;20039;-74
2023/12/06 04:25:25;;;;;;;16.17;9.32;;;;;;;0.83;81.24;99667.13;6353267;27;20047;-73
2023/12/06 04:28:26;;;;;;;17.20;9.15;;;;;;;0.92;81.61;99669.44;6367944;27;20043;-75
2023/12/06 04:31:27;;;;;;;15.05;8.00;;;;;;;0.89;81.49;99669.53;6364172;27;20441;-76
2023/12/06 04:34:29;;;;;;;18.08;8.57;;;;;;;0.94;80.21;99667.66;6363853;27;20134;-75
2023/12/06 04:37:29;;;;;;;20.90;8.73;;;;;;;0.94;81.12;99666.81;6348095;28;20052;-73
2023/12/06 04:40:30;;;;;;;14.70;7.68;;;;;;;0.85;80.76;99656.81;6366489;27;20082;-73
2023/12/06 04:43:32;;;;;;;15.80;9.18;;;;;;;0.77;81.45;99645.00;6354212;27;20047;-76
2023/12/06 04:46:33;;;;;;;19.30;8.77;;;;;;;0.70;81.06;99635.81;6348477;27;20051;-76
2023/12/06 04:49:34;;;;;;;20.65;9.65;;;;;;;0.95;81.16;99648.81;6352041;27;20551;-75
2023/12/06 04:52:35;;;;;;;15.73;7.88;;;;;;;0.93;80.48;99648.00;6369455;27;20043;-76
2023/12/06 04:55:38;;;;;;;12.45;7.53;;;;;;;0.93;79.73;99650.56;6361745;27;20130;-76
2023/12/06 04:58:39;;;;;;;14.23;7.22;;;;;;;0.90;79.92;99647.25;6352974;27;20547;-75
2023/12/06 05:01:39;;;;;;;17.65;9.65;;;;;;;0.98;79.32;99635.84;6366308;27;20039;-73
2023/12/06 05:04:43;;;;;;;17.42;8.82;;;;;;;1.06;79.46;99642.53;6348509;27;20765;-74
2023/12/06 05:07:43;;;;;;;16.73;8.70;;;;;;;0.93;80.02;99653.16;6363700;27;20051;-73
2023/12/06 05:10:44;;;;;;;12.70;7.10;;;;;;;0.88;79.48;99643.88;6372997;27;20050;-73
2023/12/06 05:13:45;;;;;;;29.77;9.13;;;;;;;0.97;79.04;99649.59;6368484;27;20047;-74
2023/12/06 05:16:46;;;;;;;15.57;9.15;;;;;;;0.92;79.39;99653.19;6369436;27;20047;-76
2023/12/06 05:19:47;;;;;;;14.50;8.18;;;;;;;0.86;80.01;99651.63;6367173;27;20045;-76
2023/12/06 05:22:48;;;;;;;16.00;9.25;;;;;;;0.97;79.49;99657.31;6358929;27;20055;-74
2023/12/06 05:25:49;;;;;;;13.93;8.15;;;;;;;1.04;79.47;99657.97;6353029;27;20063;-76
2023/12/06 05:28:50;;;;;;;15.18;8.40;;;;;;;0.93;79.67;99655.72;6355543;27;20044;-76
2023/12/06 05:31:53;;;;;;;19.85;9.65;;;;;;;0.85;79.55;99661.97;6359705;27;20051;-76
2023/12/06 05:34:54;;;;;;;19.00;10.70;;;;;;;1.02;79.37;99653.78;6352198;27;20130;-76
2023/12/06 05:37:55;;;;;;;18.48;10.13;;;;;;;0.91;79.31;99652.34;6364462;27;20096;-74
2023/12/06 05:40:58;;;;;;;25.23;10.85;;;;;;;0.86;79.87;99646.47;6365680;27;20135;-73
2023/12/06 05:43:59;;;;;;;40.70;13.70;;;;;;;0.98;79.37;99660.72;6353237;27;20059;-74
2023/12/06 05:47:04;;;;;;;56.10;14.80;;;;;;;0.95;78.73;99659.09;6354326;27;20410;-73
2023/12/06 05:50:06;;;;;;;27.20;11.50;;;;;;;0.87;79.03;99655.06;6353087;27;20050;-73
2023/12/06 05:53:07;;;;;;;16.02;8.38;;;;;;;0.74;79.70;99659.66;6361097;27;20105;-74
2023/12/06 05:56:09;;;;;;;15.88;8.60;;;;;;;0.82;79.48;99659.47;6356662;27;20043;-76
2023/12/06 05:59:10;;;;;;;13.88;8.15;;;;;;;0.80;79.53;99649.22;6368728;27;20046;-76
2023/12/06 06:02:11;;;;;;;17.90;9.40;;;;;;;0.87;79.60;99648.19;6360375;27;20055;-76
2023/12/06 06:05:13;;;;;;;24.13;9.75;;;;;;;0.77;79.29;99646.75;6359967;27;20047;-76
2023/12/06 06:08:16;;;;;;;18.55;9.35;;;;;;;0.86;79.70;99653.34;6362169;27;20499;-76
2023/12/06 06:11:17;;;;;;;15.40;7.75;;;;;;;0.85;79.69;99661.97;6371693;27;20487;-76
2023/12/06 06:14:18;;;;;;;15.85;8.25;;;;;;;0.96;79.14;99662.50;6369376;27;20058;-77
2023/12/06 06:17:22;;;;;;;20.30;8.30;;;;;;;0.89;79.42;99664.38;6359288;27;20125;-73
2023/12/06 06:20:25;;;;;;;17.42;8.73;;;;;;;1.03;78.63;99670.84;6367809;27;20070;-73
2023/12/06 06:23:26;;;;;;;17.85;9.15;;;;;;;0.96;78.96;99671.03;6361131;27;20488;-74
2023/12/06 06:26:27;;;;;;;18.25;9.35;;;;;;;0.87;78.39;99667.91;6353944;27;20047;-74
2023/12/06 06:29:28;;;;;;;18.80;9.18;;;;;;;1.05;78.60;99669.09;6358161;27;20075;-73
2023/12/06 06:32:29;;;;;;;22.27;9.77;;;;;;;1.14;78.23;99669.69;6362336;27;20411;-74
2023/12/06 06:35:30;;;;;;;14.35;9.00;;;;;;;1.11;77.94;99674.06;6372010;27;20047;-76
2023/12/06 06:38:31;;;;;;;19.67;10.30;;;;;;;1.25;77.57;99661.66;6371883;27;20051;-76
2023/12/06 06:41:32;;;;;;;18.08;8.85;;;;;;;1.17;77.50;99673.88;6370946;27;20078;-74
2023/12/06 06:44:33;;;;;;;30.13;10.88;;;;;;;1.15;77.13;99667.94;6370744;28;20051;-74
2023/12/06 06:47:37;;;;;;;21.67;9.18;;;;;;;1.09;77.28;99675.81;6370487;28;20047;-74
2023/12/06 06:50:38;;;;;;;31.58;13.50;;;;;;;1.22;77.51;99674.59;6370670;28;20075;-74
2023/12/06 06:53:39;;;;;;;24.60;11.00;;;;;;;1.33;77.41;99671.72;6370465;28;20055;-74
2023/12/06 06:56:40;;;;;;;17.15;8.45;;;;;;;1.33;77.10;99669.16;6374845;27;20104;-74
2023/12/06 06:59:41;;;;;;;21.90;10.32;;;;;;;1.38;77.51;99670.72;6397050;27;20043;-74
2023/12/06 07:02:44;;;;;;;24.90;9.63;;;;;;;1.53;77.16;99666.84;6382840;27;20050;-74
2023/12/06 07:05:46;;;;;;;18.45;8.90;;;;;;;1.43;76.57;99673.13;6400144;27;20130;-73
2023/12/06 07:08:47;;;;;;;17.70;8.32;;;;;;;1.59;76.61;99669.22;6384321;27;20057;-74
2023/12/06 07:11:48;;;;;;;18.75;8.55;;;;;;;1.57;76.60;99671.00;6375587;27;20051;-73
2023/12/06 07:14:49;;;;;;;14.95;7.53;;;;;;;1.60;76.12;99665.75;6369877;27;20402;-74
2023/12/06 07:17:52;;;;;;;21.85;9.57;;;;;;;1.69;76.53;99662.06;6360520;27;20132;-74
2023/12/06 07:20:53;;;;;;;18.10;9.18;;;;;;;1.83;75.73;99661.63;6364996;27;20123;-74
2023/12/06 07:23:54;;;;;;;18.23;9.90;;;;;;;1.91;75.38;99658.81;6375234;27;20055;-73
2023/12/06 07:26:55;;;;;;;20.17;8.38;;;;;;;1.84;75.63;99655.59;6375272;27;20086;-74
2023/12/06 07:29:58;;;;;;;20.20;8.27;;;;;;;1.79;75.76;99650.59;6375180;27;20043;-74
2023/12/06 07:32:59;;;;;;;15.77;7.40;;;;;;;1.92;75.94;99656.19;6376401;27;20047;-74
2023/12/06 07:36:00;;;;;;;15.85;8.98;;;;;;;2.08;75.00;99661.72;6386586;27;20047;-73
2023/12/06 07:39:05;;;;;;;19.65;9.52;;;;;;;1.92;74.62;99650.22;6376069;27;20209;-74
2023/12/06 07:42:09;;;;;;;14.95;8.63;;;;;;;1.99;74.85;99642.22;6383700;27;20050;-74
2023/12/06 07:45:11;;;;;;;23.77;9.85;;;;;;;2.23;74.00;99650.06;6362552;27;20051;-74
2023/12/06 07:48:12;;;;;;;17.48;8.68;;;;;;;2.17;73.57;99652.84;6363479;27;20051;-76
2023/12/06 07:51:13;;;;;;;15.15;7.78;;;;;;;2.25;73.74;99650.00;6376116;27;20084;-76
2023/12/06 07:54:16;;;;;;;15.00;8.13;;;;;;;2.35;73.27;99647.06;6375689;27;20090;-73
2023/12/06 07:57:20;;;;;;;14.98;8.82;;;;;;;2.58;73.22;99645.44;6349270;28;20127;-75
2023/12/06 08:00:23;;;;;;;12.20;6.95;;;;;;;2.56;72.21;99642.91;6349478;28;20531;-74
2023/12/06 08:03:30;;;;;;;13.57;7.72;;;;;;;2.72;72.34;99652.66;6357273;27;20464;-74
2023/12/06 08:06:33;;;;;;;12.70;7.22;;;;;;;2.85;71.44;99633.31;6351254;27;20056;-73
2023/12/06 08:09:34;;;;;;;14.77;8.23;;;;;;;3.01;71.15;99631.88;6350877;28;20073;-74
2023/12/06 08:12:36;;;;;;;13.20;6.10;;;;;;;2.82;71.10;99634.28;6349761;28;20056;-73
2023/12/06 08:15:37;;;;;;;14.50;7.07;;;;;;;2.87;71.06;99634.09;6350778;27;20051;-74
2023/12/06 08:18:38;;;;;;;16.73;7.88;;;;;;;3.13;70.46;99637.47;6357478;27;20505;-76
2023/12/06 08:21:39;;;;;;;16.75;8.13;;;;;;;3.11;69.97;99629.81;6354317;27;20055;-76
2023/12/06 08:24:40;;;;;;;15.90;7.53;;;;;;;3.37;69.87;99622.81;6350542;28;20052;-76
2023/12/06 08:27:40;;;;;;;15.68;8.07;;;;;;;3.17;69.86;99621.84;6358125;27;20051;-76
2023/12/06 08:30:41;;;;;;;18.20;9.10;;;;;;;3.14;69.73;99627.09;6365719;27;20126;-76
2023/12/06 08:33:42;;;;;;;13.57;7.80;;;;;;;3.34;69.54;99618.63;6357819;27;20051;-76
2023/12/06 08:36:45;;;;;;;17.58;8.45;;;;;;;3.58;68.84;99624.56;6369902;27;20145;-76
2023/12/06 08:39:47;;;;;;;13.45;6.53;;;;;;;3.65;67.88;99616.59;6381717;27;20135;-73
2023/12/06 08:42:48;;;;;;;13.82;8.02;;;;;;;3.71;67.90;99622.34;6374653;27;20051;-73
2023/12/06 08:45:51;;;;;;;13.50;7.22;;;;;;;3.70;68.08;99610.34;6375283;27;20051;-73
2023/12/06 08:48:53;;;;;;;19.13;7.70;;;;;;;3.89;67.88;99623.38;6376451;27;20047;-73
2023/12/06 08:51:55;;;;;;;13.65;7.47;;;;;;;4.06;66.55;99619.22;6377459;27;20051;-76
2023/12/06 08:54:56;;;;;;;17.80;7.70;;;;;;;4.00;66.49;99613.44;6375021;27;20059;-76
2023/12/06 08:57:56;;;;;;;14.80;7.40;;;;;;;4.11;66.48;99617.31;6372911;27;20054;-76
2023/12/06 09:00:57;;;;;;;13.20;7.30;;;;;;;4.22;65.79;99623.72;6378777;27;20054;-76
2023/12/06 09:03:58;;;;;;;14.80;7.80;;;;;;;4.19;65.79;99618.66;6399060;27;20055;-76
2023/12/06 09:07:00;;;;;;;14.15;7.25;;;;;;;4.18;66.19;99617.00;6374548;27;20042;-76
2023/12/06 09:10:00;;;;;;;15.80;6.10;;;;;;;4.12;66.90;99622.41;6373873;27;20047;-77
2023/12/06 09:13:01;;;;;;;13.48;7.03;;;;;;;4.26;66.19;99616.66;6372747;27;20058;-74
2023/12/06 09:16:04;;;;;;;19.77;8.05;;;;;;;4.30;65.42;99617.38;6366613;27;20047;-74
2023/12/06 09:19:05;;;;;;;19.45;8.50;;;;;;;4.29;65.23;99621.72;6371265;27;20058;-74
2023/12/06 09:22:07;;;;;;;15.48;7.53;;;;;;;4.33;65.39;99615.50;6372658;27;20441;-74
2023/12/06 09:25:08;;;;;;;19.60;8.15;;;;;;;4.49;65.01;99617.44;6373551;27;20406;-73
2023/12/06 09:28:11;;;;;;;13.07;7.53;;;;;;;4.51;65.40;99618.19;6380036;27;20047;-74
2023/12/06 09:31:14;;;;;;;14.02;7.65;;;;;;;4.23;64.97;99602.13;6399186;27;20505;-76
2023/12/06 09:34:14;;;;;;;11.25;6.65;;;;;;;4.35;65.61;99603.38;6398696;27;20446;-76
2023/12/06 09:37:16;;;;;;;14.98;7.68;;;;;;;4.61;65.13;99597.09;6399754;27;20097;-76
2023/12/06 09:40:17;;;;;;;15.88;8.60;;;;;;;4.55;64.98;99591.31;6372475;27;20051;-74
2023/12/06 09:43:18;;;;;;;19.48;8.57;;;;;;;4.63;64.61;99586.66;6372715;27;20057;-76
2023/12/06 09:46:21;;;;;;;16.07;8.30;;;;;;;4.69;64.25;99588.16;6372515;27;20047;-76
2023/12/06 09:49:22;;;;;;;15.88;7.93;;;;;;;4.83;65.37;99576.28;6372292;27;20047;-76
2023/12/06 09:52:23;;;;;;;12.48;6.80;;;;;;;5.00;64.75;99582.44;6383691;27;20112;-76
2023/12/06 09:55:24;;;;;;;15.15;7.80;;;;;;;5.02;64.47;99583.19;6398020;27;20054;-74
2023/12/06 09:58:25;;;;;;;14.70;7.80;;;;;;;4.82;64.08;99576.38;6372766;27;20100;-74
2023/12/06 10:01:26;;;;;;;14.77;7.93;;;;;;;4.95;64.30;99571.47;6364174;27;20039;-76
2023/12/06 10:04:27;;;;;;;14.98;7.30;;;;;;;4.91;63.91;99573.34;6371554;27;20119;-76
2023/12/06 10:07:34;;;;;;;15.63;7.82;;;;;;;5.21;63.52;99563.34;6367835;27;20053;-76
2023/12/06 10:10:35;;;;;;;13.82;7.57;;;;;;;5.38;63.31;99566.91;6374688;27;20126;-74
2023/12/06 10:13:40;;;;;;;17.85;8.35;;;;;;;5.49;62.51;99553.44;6371856;27;20047;-74
2023/12/06 10:16:41;;;;;;;12.23;6.30;;;;;;;5.59;62.16;99552.91;6371079;27;20547;-74
2023/12/06 10:19:42;;;;;;;13.10;7.15;;;;;;;5.54;62.03;99551.47;6362771;27;20058;-73
2023/12/06 10:22:45;;;;;;;15.07;7.93;;;;;;;5.53;62.34;99555.81;6362186;27;20063;-74
2023/12/06 10:25:50;;;;;;;14.55;7.55;;;;;;;5.63;61.50;99551.84;6351840;27;20052;-74
2023/12/06 10:28:50;;;;;;;16.13;8.27;;;;;;;5.78;61.85;99545.09;6353476;27;20055;-76
2023/12/06 10:31:54;;;;;;;12.70;7.20;;;;;;;5.56;61.82;99539.28;6347297;28;20066;-76
2023/12/06 10:34:58;;;;;;;14.27;8.07;;;;;;;6.09;60.95;99545.34;6361746;27;20051;-76
2023/12/06 10:38:00;;;;;;;18.65;8.63;;;;;;;6.38;60.98;99544.72;6372879;27;20053;-76
2023/12/06 10:41:04;;;;;;;14.88;7.30;;;;;;;6.58;59.96;99543.66;6372693;27;20479;-76
2023/12/06 10:44:07;;;;;;;17.10;9.05;;;;;;;6.37;59.41;99543.03;6383428;27;20730;-76
2023/12/06 10:47:10;;;;;;;17.58;7.97;;;;;;;6.08;59.66;99541.09;6372321;27;20051;-76
2023/12/06 10:50:11;;;;;;;16.35;8.40;;;;;;;5.90;60.28;99535.06;6372709;27;20075;-76
2023/12/06 10:53:19;;;;;;;14.10;7.55;;;;;;;6.04;61.12;99546.41;6372882;27;20051;-76
2023/12/06 10:56:21;;;;;;;14.95;8.10;;;;;;;6.07;60.77;99537.66;6372393;27;20051;-76
2023/12/06 10:59:25;;;;;;;17.55;8.20;;;;;;;6.21;60.43;99542.13;6372466;27;20100;-74
2023/12/06 11:02:26;;;;;;;16.15;7.75;;;;;;;6.14;60.16;99540.78;6369926;27;20047;-74
2023/12/06 11:05:30;;;;;;;12.57;7.05;;;;;;;5.90;60.42;99532.47;6362227;28;20184;-76
2023/12/06 11:08:37;;;;;;;16.27;7.95;;;;;;;6.11;61.23;99535.75;6371150;28;20055;-77
2023/12/06 11:11:49;;;;;;;16.17;9.05;;;;;;;6.25;60.88;99525.53;6374277;27;20055;-74
2023/12/06 11:15:40;;;;;;;16.48;8.52;;;;;;;6.00;60.79;99520.75;6376291;27;20456;-74
2023/12/06 11:18:49;;;;;;;13.85;7.50;;;;;;;5.99;61.67;99519.94;6324277;27;20048;-76
2023/12/06 11:21:53;;;;;;;16.58;8.85;;;;;;;5.82;61.02;99522.47;6371482;28;20050;-76
2023/12/06 11:24:54;;;;;;;15.70;7.85;;;;;;;5.81;61.92;99515.66;6371952;27;20075;-76
2023/12/06 11:27:55;;;;;;;15.88;8.50;;;;;;;5.92;62.33;99515.94;6370491;28;20058;-76
2023/12/06 11:30:56;;;;;;;15.75;8.45;;;;;;;5.81;62.03;99500.94;6370216;28;20043;-76
2023/12/06 11:33:58;;;;;;;18.90;7.82;;;;;;;5.86;61.50;99504.13;6371534;27;20044;-74
2023/12/06 11:37:03;;;;;;;16.05;7.68;;;;;;;5.86;62.58;99496.34;6370184;28;20149;-74
2023/12/06 11:40:18;;;;;;;12.50;7.75;;;;;;;5.97;62.31;99513.13;6372919;27;20055;-74
2023/12/06 11:43:31;;;;;;;14.65;8.02;;;;;;;5.96;62.34;99514.06;6384467;27;20138;-74
2023/12/06 11:46:33;;;;;;;17.48;9.20;;;;;;;5.96;62.05;99509.72;6377256;27;20422;-74
2023/12/06 11:49:34;;;;;;;18.55;8.77;;;;;;;5.97;61.80;99513.13;6401562;27;20053;-74
2023/12/06 11:52:46;;;;;;;20.73;9.13;;;;;;;6.02;62.53;99517.16;6401545;27;20046;-74
2023/12/06 11:55:48;;;;;;;17.52;7.65;;;;;;;5.87;62.08;99512.75;6381032;27;20130;-76
2023/12/06 11:58:51;;;;;;;18.63;9.40;;;;;;;5.75;63.12;99503.84;6362113;27;20095;-74
2023/12/06 12:01:54;;;;;;;14.63;7.95;;;;;;;5.72;63.81;99514.31;6374877;27;20071;-76
2023/12/06 12:04:56;;;;;;;19.02;8.50;;;;;;;5.75;63.05;99514.19;6371547;27;20107;-76
2023/12/06 12:08:00;;;;;;;14.07;7.72;;;;;;;5.73;62.89;99520.38;6367185;27;20491;-74
2023/12/06 12:11:00;;;;;;;22.20;10.32;;;;;;;5.70;63.11;99528.25;6374206;27;20414;-76
2023/12/06 12:14:01;;;;;;;17.73;9.05;;;;;;;5.65;63.90;99518.16;6368125;27;20054;-76
2023/12/06 12:17:04;;;;;;;17.05;9.18;;;;;;;5.79;63.59;99510.53;6353093;27;20408;-74
2023/12/06 12:20:06;;;;;;;16.60;8.98;;;;;;;5.76;64.06;99509.84;6349106;28;20494;-76
2023/12/06 12:23:09;;;;;;;17.38;7.82;;;;;;;5.59;63.31;99503.75;6348969;28;20051;-76
2023/12/06 12:26:17;;;;;;;20.63;9.18;;;;;;;5.73;64.45;99503.06;6350491;28;20063;-76
2023/12/06 12:29:18;;;;;;;17.60;9.88;;;;;;;5.58;64.42;99512.44;6348967;28;20047;-76
2023/12/06 12:32:21;;;;;;;17.13;9.05;;;;;;;5.60;64.04;99513.19;6368927;27;20479;-77
2023/12/06 12:35:22;;;;;;;19.48;9.00;;;;;;;5.60;64.57;99510.63;6374410;27;20089;-76
2023/12/06 12:38:25;;;;;;;25.27;12.13;;;;;;;5.65;64.82;99502.63;6374667;27;20055;-76
2023/12/06 12:41:26;;;;;;;34.17;16.23;;;;;;;5.47;64.63;99501.75;6375119;27;20072;-77
2023/12/06 12:44:27;;;;;;;25.65;13.57;;;;;;;5.63;64.92;99507.03;6375711;27;20047;-74
2023/12/06 12:47:32;;;;;;;24.50;11.80;;;;;;;5.65;64.76;99502.63;6370954;27;20047;-77
2023/12/06 12:50:33;;;;;;;20.00;11.18;;;;;;;5.60;64.54;99492.50;6365440;27;20047;-74
2023/12/06 12:53:35;;;;;;;24.10;11.70;;;;;;;5.54;64.76;99490.22;6376481;27;20104;-74
2023/12/06 12:56:38;;;;;;;20.30;9.85;;;;;;;5.46;65.71;99494.94;6360913;27;20141;-74
2023/12/06 12:59:40;;;;;;;;;;;;;;;5.46;65.62;99500.09;6376245;27;20050;-74
2023/12/06 13:02:41;;;;;;;17.13;9.43;;;;;;;5.49;65.98;99499.94;6358897;27;19965;-74
2023/12/06 13:05:42;;;;;;;12.48;6.05;;;;;;;5.13;66.13;99482.69;6368061;27;20462;-74
2023/12/06 13:08:43;;;;;;;17.10;8.35;;;;;;;5.28;66.26;99496.66;6374320;27;20043;-74
2023/12/06 13:11:44;;;;;;;17.85;9.23;;;;;;;5.34;67.12;99498.94;6371130;27;20058;-74
2023/12/06 13:14:47;;;;;;;17.27;8.65;;;;;;;5.24;66.27;99493.34;6370641;27;20061;-74
2023/12/06 13:17:48;;;;;;;18.13;9.65;;;;;;;5.49;66.20;99491.34;6368922;27;20053;-75
2023/12/06 13:20:50;;;;;;;33.83;10.88;;;;;;;5.48;66.79;99493.09;6374701;27;20035;-74
2023/12/06 13:23:53;;;;;;;16.97;8.63;;;;;;;5.40;66.48;99493.47;6372426;27;20051;-74
2023/12/06 13:26:54;;;;;;;21.10;10.15;;;;;;;5.45;66.70;99493.22;6376358;27;20047;-76
2023/12/06 13:29:55;;;;;;;20.08;9.80;;;;;;;5.48;66.62;99490.50;6351511;27;20852;-74
2023/12/06 13:32:55;;;;;;;20.30;9.85;;;;;;;5.30;66.90;99496.56;6355829;27;20066;-76
2023/12/06 13:35:56;;;;;;;21.92;10.05;;;;;;;5.33;66.94;99493.81;6351594;27;21392;-76
2023/12/06 13:38:57;;;;;;;19.58;9.32;;;;;;;5.42;67.18;99507.16;6354864;27;20051;-76
2023/12/06 13:42:01;;;;;;;19.67;9.82;;;;;;;5.48;66.98;99503.44;6373013;27;20077;-76
2023/12/06 13:45:02;;;;;;;16.67;9.27;;;;;;;5.36;67.25;99502.28;6354733;27;20486;-76
2023/12/06 13:48:04;;;;;;;16.17;9.48;;;;;;;5.28;67.69;99498.41;6356729;27;20055;-74
2023/12/06 13:51:05;;;;;;;15.15;8.32;;;;;;;5.30;67.65;99509.50;6351997;27;20504;-74
2023/12/06 13:54:06;;;;;;;22.13;11.63;;;;;;;5.42;67.12;99507.16;6351889;27;20050;-76
2023/12/06 13:57:07;;;;;;;20.05;10.68;;;;;;;5.42;67.53;99502.00;6359662;27;20104;-76
2023/12/06 14:00:08;;;;;;;20.05;9.52;;;;;;;5.35;67.48;99504.94;6360278;27;20043;-77
2023/12/06 14:03:14;;;;;;;20.27;10.65;;;;;;;5.38;68.00;99507.41;6363608;27;20054;-76
2023/12/06 14:06:18;;;;;;;26.13;14.68;;;;;;;5.47;67.69;99503.50;6359569;27;20051;-75
2023/12/06 14:09:20;;;;;;;37.35;17.85;;;;;;;5.44;68.38;99510.50;6345965;28;20043;-76
2023/12/06 14:12:21;;;;;;;27.13;13.38;;;;;;;5.33;68.29;99510.19;6347292;28;20044;-75
2023/12/06 14:15:24;;;;;;;23.23;10.73;;;;;;;5.21;69.34;99505.63;6348250;27;20077;-76
2023/12/06 14:18:25;;;;;;;36.80;17.58;;;;;;;5.27;69.33;99514.81;6362366;27;20411;-73